createdAt,value
2019-05-01T00:01:13.769Z,17.27
2019-05-01T00:03:19.058Z,16.02
2019-05-01T00:05:30.511Z,13.85
2019-05-01T00:07:35.885Z,9.05
2019-05-01T00:09:39.480Z,10.90
2019-05-01T00:13:46.361Z,16.02
2019-05-01T00:15:51.157Z,10.38
2019-05-01T00:17:54.733Z,10.18
2019-05-01T00:22:01.173Z,15.55
2019-05-01T00:26:07.605Z,12.80
2019-05-01T00:30:15.948Z,10.65
2019-05-01T00:32:19.626Z,11.28
2019-05-01T00:34:23.189Z,15.23
2019-05-01T00:38:29.581Z,11.18
2019-05-01T00:42:35.984Z,10.80
2019-05-01T00:46:42.368Z,19.92
2019-05-01T00:50:48.824Z,15.60
2019-05-01T00:52:52.387Z,14.10
2019-05-01T00:57:35.345Z,13.10
2019-05-01T00:59:49.664Z,13.10
2019-05-01T01:02:04.176Z,15.13
2019-05-01T01:04:08.245Z,11.93
2019-05-01T01:06:12.366Z,16.10
2019-05-01T01:08:16.481Z,14.73
2019-05-01T01:10:20.434Z,17.45
2019-05-01T01:12:24.157Z,12.15
2019-05-01T01:14:27.749Z,12.45
2019-05-01T01:18:34.126Z,11.73
2019-05-01T01:22:40.636Z,15.60
2019-05-01T01:26:47.221Z,15.38
2019-05-01T01:28:50.788Z,19.50
2019-05-01T01:32:58.971Z,15.25
2019-05-01T01:35:02.740Z,11.30
2019-05-01T01:37:06.368Z,14.85
2019-05-01T01:39:10.094Z,15.00
2019-05-01T01:41:13.903Z,14.60
2019-05-01T01:43:34.535Z,17.62
2019-05-01T01:45:39.798Z,16.82
2019-05-01T01:48:01.725Z,12.30
2019-05-01T01:50:07.836Z,14.43
2019-05-01T01:52:11.861Z,15.88
2019-05-01T01:54:15.665Z,18.17
2019-05-01T01:56:19.364Z,13.25
2019-05-01T01:58:23.910Z,14.25
2019-05-01T02:00:45.477Z,12.45
2019-05-01T02:02:50.742Z,14.78
2019-05-01T02:05:04.883Z,14.28
2019-05-01T02:07:08.509Z,13.45
2019-05-01T02:09:12.450Z,20.10
2019-05-01T02:11:16.088Z,15.83
2019-05-01T02:13:19.798Z,14.18
2019-05-01T02:15:23.480Z,16.80
2019-05-01T02:17:27.126Z,12.65
2019-05-01T02:19:30.759Z,14.18
2019-05-01T02:21:34.477Z,26.23
2019-05-01T02:23:38.045Z,14.65
2019-05-01T02:27:48.066Z,19.57
2019-05-01T02:29:53.817Z,17.10
2019-05-01T02:31:58.948Z,14.78
2019-05-01T02:34:03.577Z,13.15
2019-05-01T02:36:07.778Z,15.85
2019-05-01T02:38:12.734Z,15.93
2019-05-01T02:40:36.989Z,15.53
2019-05-01T02:44:47.215Z,16.60
2019-05-01T02:46:53.377Z,16.40
2019-05-01T02:49:05.991Z,15.80
2019-05-01T02:51:10.443Z,16.32
2019-05-01T02:53:14.977Z,14.78
2019-05-01T02:55:20.470Z,17.10
2019-05-01T02:57:25.611Z,22.45
2019-05-01T02:59:31.379Z,18.02
2019-05-01T03:01:46.655Z,19.48
2019-05-01T03:03:42.747Z,16.17
2019-05-01T03:05:46.452Z,19.32
2019-05-01T03:07:50.285Z,16.45
2019-05-01T03:09:54.389Z,17.23
2019-05-01T03:12:00.234Z,18.07
2019-05-01T03:14:04.946Z,14.63
2019-05-01T03:16:10.810Z,18.73
2019-05-01T03:18:16.045Z,22.65
2019-05-01T03:20:21.428Z,16.10
2019-05-01T03:22:44.949Z,18.55
2019-05-01T03:24:48.661Z,23.47
2019-05-01T03:26:52.417Z,17.65
2019-05-01T03:28:56.128Z,16.00
2019-05-01T03:30:59.706Z,17.52
2019-05-01T03:35:07.397Z,22.20
2019-05-01T03:37:11.032Z,16.90
2019-05-01T03:39:16.052Z,17.55
2019-05-01T03:41:20.095Z,22.30
2019-05-01T03:43:24.854Z,26.40
2019-05-01T03:45:29.131Z,24.27
2019-05-01T03:47:32.898Z,23.20
2019-05-01T03:49:36.806Z,26.52
2019-05-01T03:51:40.942Z,21.07
2019-05-01T03:53:44.642Z,26.23
2019-05-01T03:55:48.617Z,20.90
2019-05-01T03:57:52.426Z,19.10
2019-05-01T03:59:56.458Z,15.65
2019-05-01T04:02:32.111Z,18.98
2019-05-01T04:04:25.308Z,16.02
2019-05-01T04:06:29.048Z,17.37
2019-05-01T04:08:33.478Z,19.95
2019-05-01T04:10:37.417Z,20.00
2019-05-01T04:12:42.032Z,17.82
2019-05-01T04:14:45.879Z,19.75
2019-05-01T04:16:51.661Z,20.68
2019-05-01T04:18:55.480Z,17.05
2019-05-01T04:20:59.267Z,19.20
2019-05-01T04:23:03.062Z,21.10
2019-05-01T04:25:08.078Z,24.43
2019-05-01T04:27:13.469Z,18.73
2019-05-01T04:29:19.128Z,18.57
2019-05-01T04:31:27.545Z,19.05
2019-05-01T04:33:31.976Z,19.50
2019-05-01T04:35:49.160Z,17.27
2019-05-01T04:37:53.178Z,18.07
2019-05-01T04:39:57.003Z,18.25
2019-05-01T04:42:00.678Z,22.67
2019-05-01T04:44:05.024Z,19.70
2019-05-01T04:46:08.813Z,21.25
2019-05-01T04:48:13.696Z,16.30
2019-05-01T04:50:17.606Z,18.57
2019-05-01T04:52:21.669Z,20.95
2019-05-01T04:54:25.692Z,19.82
2019-05-01T04:56:29.420Z,16.37
2019-05-01T04:58:33.337Z,18.98
2019-05-01T05:00:37.070Z,25.68
2019-05-01T05:02:42.635Z,16.60
2019-05-01T05:04:46.341Z,16.25
2019-05-01T05:06:51.449Z,16.97
2019-05-01T05:08:55.352Z,18.87
2019-05-01T05:11:01.132Z,23.15
2019-05-01T05:13:15.393Z,21.57
2019-05-01T05:15:32.762Z,22.90
2019-05-01T05:17:36.503Z,19.57
2019-05-01T05:19:40.144Z,18.60
2019-05-01T05:21:43.887Z,18.65
2019-05-01T05:23:48.158Z,18.57
2019-05-01T05:25:52.397Z,21.15
2019-05-01T05:27:57.445Z,19.30
2019-05-01T05:30:02.345Z,17.85
2019-05-01T05:32:07.781Z,20.27
2019-05-01T05:34:14.114Z,22.48
2019-05-01T05:36:19.233Z,20.12
2019-05-01T05:38:32.638Z,18.75
2019-05-01T05:40:37.719Z,16.73
2019-05-01T05:42:41.350Z,20.50
2019-05-01T05:44:46.567Z,17.50
2019-05-01T05:46:50.210Z,15.13
2019-05-01T05:48:53.868Z,19.52
2019-05-01T05:51:16.352Z,19.37
2019-05-01T05:53:24.482Z,17.87
2019-05-01T05:55:34.803Z,18.90
2019-05-01T05:57:41.754Z,18.52
2019-05-01T05:59:55.236Z,18.02
2019-05-01T06:02:03.558Z,17.95
2019-05-01T06:04:21.104Z,19.65
2019-05-01T06:06:41.284Z,12.90
2019-05-01T06:08:46.759Z,24.45
2019-05-01T06:10:53.507Z,20.08
2019-05-01T06:13:10.973Z,17.02
2019-05-01T06:15:19.330Z,18.90
2019-05-01T06:17:28.426Z,19.87
2019-05-01T06:19:35.094Z,22.20
2019-05-01T06:21:59.002Z,18.12
2019-05-01T06:24:10.672Z,17.85
2019-05-01T06:26:37.282Z,19.27
2019-05-01T06:28:36.616Z,15.32
2019-05-01T06:30:42.101Z,14.33
2019-05-01T06:32:45.932Z,15.08
2019-05-01T06:34:49.496Z,16.10
2019-05-01T06:38:56.789Z,13.45
2019-05-01T06:41:01.483Z,18.57
2019-05-01T06:43:05.261Z,15.30
2019-05-01T06:45:12.999Z,16.25
2019-05-01T06:47:20.505Z,20.57
2019-05-01T06:49:38.840Z,13.68
2019-05-01T06:51:48.048Z,14.63
2019-05-01T06:53:52.552Z,14.25
2019-05-01T06:57:59.749Z,14.70
2019-05-01T07:00:08.209Z,19.20
2019-05-01T07:02:15.841Z,11.10
2019-05-01T07:04:19.150Z,15.35
2019-05-01T07:06:25.919Z,16.17
2019-05-01T07:08:29.570Z,17.42
2019-05-01T07:10:43.523Z,17.10
2019-05-01T07:12:39.910Z,13.50
2019-05-01T07:14:47.116Z,18.32
2019-05-01T07:16:49.569Z,13.18
2019-05-01T07:18:58.115Z,10.65
2019-05-01T07:21:00.238Z,12.98
2019-05-01T07:25:08.203Z,12.28
2019-05-01T07:27:11.853Z,12.25
2019-05-01T07:31:20.038Z,15.38
2019-05-01T07:33:24.080Z,10.38
2019-05-01T07:35:27.884Z,10.85
2019-05-01T07:37:31.649Z,10.05
2019-05-01T07:39:35.484Z,14.28
2019-05-01T07:41:39.215Z,8.35
2019-05-01T07:43:44.632Z,10.45
2019-05-01T07:45:52.900Z,8.85
2019-05-01T07:48:01.085Z,10.13
2019-05-01T07:50:06.153Z,8.85
2019-05-01T07:52:12.539Z,16.30
2019-05-01T07:54:15.415Z,7.08
2019-05-01T07:56:22.783Z,9.43
2019-05-01T07:58:24.888Z,8.93
2019-05-01T08:00:42.663Z,12.07
2019-05-01T08:02:46.366Z,13.38
2019-05-01T08:06:57.232Z,10.00
2019-05-01T08:08:58.225Z,11.53
2019-05-01T08:11:05.336Z,8.45
2019-05-01T08:13:07.245Z,10.95
2019-05-01T08:17:18.080Z,9.80
2019-05-01T08:19:22.053Z,11.88
2019-05-01T08:21:39.140Z,11.33
2019-05-01T08:23:46.934Z,6.45
2019-05-01T08:25:48.279Z,7.78
2019-05-01T08:27:56.369Z,10.55
2019-05-01T08:30:03.289Z,9.65
2019-05-01T08:32:24.935Z,8.20
2019-05-01T08:34:30.217Z,10.85
2019-05-01T08:36:33.915Z,9.45
2019-05-01T08:38:37.621Z,7.45
2019-05-01T08:40:41.216Z,6.17
2019-05-01T08:45:05.185Z,5.45
2019-05-01T08:47:11.701Z,7.45
2019-05-01T08:49:16.975Z,7.25
2019-05-01T08:51:20.573Z,6.40
2019-05-01T08:55:26.983Z,11.93
2019-05-01T08:59:35.165Z,7.45
2019-05-01T09:01:38.799Z,7.33
2019-05-01T09:05:45.202Z,8.35
2019-05-01T09:11:56.040Z,8.10
2019-05-01T09:16:03.867Z,8.78
2019-05-01T09:18:07.444Z,7.20
2019-05-01T09:22:14.328Z,10.28
2019-05-01T09:24:18.032Z,8.48
2019-05-01T09:26:45.307Z,9.83
2019-05-01T09:29:05.801Z,10.43
2019-05-01T09:31:13.776Z,9.53
2019-05-01T09:33:17.525Z,7.70
2019-05-01T09:35:21.304Z,13.75
2019-05-01T09:37:24.862Z,12.03
2019-05-01T09:41:38.474Z,12.95
2019-05-01T09:43:37.848Z,12.73
2019-05-01T09:47:44.371Z,8.80
2019-05-01T09:49:48.855Z,10.65
2019-05-01T09:52:11.203Z,7.83
2019-05-01T09:54:16.546Z,9.98
2019-05-01T09:56:21.752Z,10.63
2019-05-01T09:58:25.349Z,12.73
2019-05-01T10:02:33.428Z,9.45
2019-05-01T10:06:39.904Z,9.28
2019-05-01T10:10:46.350Z,9.53
2019-05-01T10:14:52.857Z,9.75
2019-05-01T10:16:56.462Z,11.95
2019-05-01T10:19:00.118Z,16.85
2019-05-01T10:23:07.871Z,11.25
2019-05-01T10:25:13.439Z,11.50
2019-05-01T10:27:18.818Z,12.40
2019-05-01T10:29:32.961Z,12.07
2019-05-01T10:31:55.977Z,16.15
2019-05-01T10:34:16.609Z,13.70
2019-05-01T10:36:30.829Z,14.87
2019-05-01T10:38:34.501Z,14.18
2019-05-01T10:40:38.076Z,13.85
2019-05-01T10:44:44.933Z,11.53
2019-05-01T10:48:51.342Z,13.83
2019-05-01T10:50:54.938Z,14.13
2019-05-01T10:55:01.482Z,16.25
2019-05-01T10:57:05.253Z,16.30
2019-05-01T10:59:08.924Z,16.45
2019-05-01T11:01:20.094Z,16.42
2019-05-01T11:03:23.771Z,18.90
2019-05-01T11:05:27.346Z,15.08
2019-05-01T11:09:33.784Z,17.90
2019-05-01T11:13:40.184Z,21.15
2019-05-01T11:15:43.769Z,19.17
2019-05-01T11:19:50.220Z,19.65
2019-05-01T11:21:53.974Z,18.70
2019-05-01T11:23:57.564Z,19.07
2019-05-01T11:26:01.195Z,19.20
2019-05-01T11:28:04.809Z,20.65
2019-05-01T11:30:09.024Z,19.65
2019-05-01T11:32:20.184Z,18.82
2019-05-01T11:34:41.774Z,21.20
2019-05-01T11:36:49.973Z,21.45
2019-05-01T11:38:55.260Z,21.50
2019-05-01T11:41:03.394Z,25.00
2019-05-01T11:43:07.728Z,23.95
2019-05-01T11:45:11.714Z,25.50
2019-05-01T11:47:15.330Z,20.48
2019-05-01T11:51:21.786Z,23.12
2019-05-01T11:53:25.365Z,28.80
2019-05-01T11:57:31.760Z,26.68
2019-05-01T12:01:38.240Z,26.90
2019-05-01T12:03:41.813Z,30.97
2019-05-01T12:07:48.186Z,30.43
2019-05-01T12:11:56.498Z,36.13
2019-05-01T12:14:00.097Z,30.50
2019-05-01T12:16:11.349Z,35.75
2019-05-01T12:18:14.926Z,32.13
2019-05-01T12:22:22.105Z,33.55
2019-05-01T12:26:28.472Z,29.63
2019-05-01T12:30:34.845Z,33.15
2019-05-01T12:34:41.230Z,33.38
2019-05-01T12:38:48.109Z,31.42
2019-05-01T12:40:53.322Z,29.72
2019-05-01T12:42:56.904Z,31.65
2019-05-01T12:47:11.080Z,34.80
2019-05-01T12:49:15.880Z,27.27
2019-05-01T12:51:19.651Z,29.05
2019-05-01T12:53:24.873Z,32.28
2019-05-01T12:55:30.172Z,31.97
2019-05-01T12:57:33.745Z,31.45
2019-05-01T13:01:40.146Z,33.80
2019-05-01T13:03:43.717Z,35.98
2019-05-01T13:07:52.369Z,31.65
2019-05-01T13:09:55.508Z,34.15
2019-05-01T13:11:59.106Z,35.23
2019-05-01T13:14:02.717Z,31.15
2019-05-01T13:16:06.444Z,29.52
2019-05-01T13:18:10.029Z,36.58
2019-05-01T13:22:16.767Z,34.85
2019-05-01T13:26:24.877Z,34.00
2019-05-01T13:28:30.115Z,33.33
2019-05-01T13:30:35.414Z,38.73
2019-05-01T13:32:40.692Z,37.08
2019-05-01T13:34:44.290Z,30.65
2019-05-01T13:38:50.685Z,34.33
2019-05-01T13:42:57.062Z,42.75
2019-05-01T13:47:03.649Z,39.27
2019-05-01T13:49:07.364Z,35.38
2019-05-01T13:51:12.581Z,36.05
2019-05-01T13:53:16.319Z,40.23
2019-05-01T13:55:20.235Z,36.75
2019-05-01T13:57:23.845Z,37.78
2019-05-01T13:59:27.504Z,36.93
2019-05-01T14:01:31.098Z,35.50
2019-05-01T14:05:37.501Z,39.27
2019-05-01T14:09:44.080Z,40.65
2019-05-01T14:11:47.734Z,42.83
2019-05-01T14:13:51.379Z,34.80
2019-05-01T14:15:54.962Z,33.28
2019-05-01T14:20:08.605Z,39.40
2019-05-01T14:22:16.653Z,36.25
2019-05-01T14:24:24.376Z,39.78
2019-05-01T14:26:27.965Z,38.70
2019-05-01T14:30:35.163Z,41.45
2019-05-01T14:34:41.679Z,42.93
2019-05-01T14:36:45.272Z,40.60
2019-05-01T14:40:51.749Z,43.65
2019-05-01T14:42:55.416Z,45.65
2019-05-01T14:44:59.061Z,41.83
2019-05-01T14:47:02.672Z,41.63
2019-05-01T14:49:06.682Z,43.20
2019-05-01T14:51:10.318Z,43.55
2019-05-01T14:53:13.897Z,46.25
2019-05-01T14:57:20.357Z,44.90
2019-05-01T14:59:23.937Z,38.00
2019-05-01T15:03:30.397Z,36.23
2019-05-01T15:05:34.815Z,33.58
2019-05-01T15:07:43.631Z,42.73
2019-05-01T15:09:43.748Z,38.73
2019-05-01T15:14:08.322Z,38.78
2019-05-01T15:16:25.112Z,39.60
2019-05-01T15:18:33.168Z,37.50
2019-05-01T15:20:36.828Z,81.67
2019-05-01T15:22:40.440Z,146.47
2019-05-01T15:24:44.085Z,98.27
2019-05-01T15:26:47.774Z,79.75
2019-05-01T15:28:51.351Z,57.60
2019-05-01T15:32:57.745Z,63.00
2019-05-01T15:35:01.357Z,51.23
2019-05-01T15:37:05.314Z,49.77
2019-05-01T15:39:11.137Z,40.00
2019-05-01T15:41:22.256Z,38.92
2019-05-01T15:43:27.473Z,42.40
2019-05-01T15:45:31.083Z,41.45
2019-05-01T15:47:34.696Z,44.55
2019-05-01T15:49:38.278Z,42.10
2019-05-01T15:53:45.342Z,44.55
2019-05-01T15:55:49.048Z,44.08
2019-05-01T15:57:52.804Z,40.55
2019-05-01T15:59:56.473Z,43.33
2019-05-01T16:02:00.148Z,39.18
2019-05-01T16:04:04.238Z,41.48
2019-05-01T16:06:08.460Z,41.55
2019-05-01T16:08:12.192Z,49.77
2019-05-01T16:12:37.495Z,49.05
2019-05-01T16:14:41.517Z,43.25
2019-05-01T16:16:45.097Z,42.83
2019-05-01T16:20:51.524Z,58.52
2019-05-01T16:22:55.094Z,47.67
2019-05-01T16:27:01.561Z,55.43
2019-05-01T16:29:05.196Z,86.97
2019-05-01T16:31:08.821Z,66.28
2019-05-01T16:33:12.395Z,88.07
2019-05-01T16:37:18.852Z,131.25
2019-05-01T16:39:24.067Z,73.70
2019-05-01T16:41:29.412Z,54.88
2019-05-01T16:43:32.984Z,54.58
2019-05-01T16:47:39.533Z,61.37
2019-05-01T16:51:46.067Z,51.20
2019-05-01T16:55:52.441Z,54.63
2019-05-01T16:59:58.987Z,57.83
2019-05-01T17:02:04.213Z,47.88
2019-05-01T17:04:09.594Z,49.48
2019-05-01T17:06:27.281Z,48.48
2019-05-01T17:08:49.074Z,46.37
2019-05-01T17:10:53.521Z,48.80
2019-05-01T17:12:57.276Z,48.73
2019-05-01T17:15:00.891Z,47.27
2019-05-01T17:17:06.510Z,50.10
2019-05-01T17:19:10.153Z,47.27
2019-05-01T17:23:16.584Z,45.65
2019-05-01T17:27:23.144Z,49.42
2019-05-01T17:29:26.708Z,45.33
2019-05-01T17:33:33.305Z,45.90
2019-05-01T17:35:41.378Z,47.85
2019-05-01T17:37:42.405Z,47.75
2019-05-01T17:39:46.075Z,49.13
2019-05-01T17:43:52.463Z,44.98
2019-05-01T17:47:59.658Z,43.48
2019-05-01T17:50:03.544Z,41.15
2019-05-01T17:52:07.153Z,40.17
2019-05-01T17:56:15.337Z,46.13
2019-05-01T17:58:18.958Z,41.30
2019-05-01T18:02:46.821Z,36.73
2019-05-01T18:04:52.109Z,39.20
2019-05-01T18:06:55.712Z,41.15
2019-05-01T18:13:06.561Z,45.52
2019-05-01T18:17:13.337Z,41.25
2019-05-01T18:19:17.114Z,46.10
2019-05-01T18:21:20.928Z,48.65
2019-05-01T18:23:47.291Z,44.75
2019-05-01T18:25:49.663Z,43.63
2019-05-01T18:27:55.680Z,47.78
2019-05-01T18:30:01.078Z,48.55
2019-05-01T18:32:08.308Z,46.73
2019-05-01T18:34:11.161Z,45.23
2019-05-01T18:38:26.228Z,50.80
2019-05-01T18:40:37.518Z,45.55
2019-05-01T18:42:41.098Z,54.13
2019-05-01T18:46:49.308Z,51.18
2019-05-01T18:50:56.399Z,52.45
2019-05-01T18:53:00.193Z,50.75
2019-05-01T18:57:07.263Z,55.33
2019-05-01T18:59:10.877Z,52.45
2019-05-01T19:03:17.583Z,49.98
2019-05-01T19:07:23.985Z,54.13
2019-05-01T19:11:32.457Z,51.00
2019-05-01T19:13:36.279Z,51.95
2019-05-01T19:17:42.962Z,51.95
2019-05-01T19:19:46.557Z,51.42
2019-05-01T19:23:53.105Z,47.05
2019-05-01T19:26:03.528Z,49.95
2019-05-01T19:28:03.792Z,50.83
2019-05-01T19:30:09.709Z,51.50
2019-05-01T19:32:14.065Z,47.10
2019-05-01T19:34:17.813Z,48.08
2019-05-01T19:36:21.460Z,51.18
2019-05-01T19:38:29.347Z,49.20
2019-05-01T19:40:32.552Z,49.33
2019-05-01T19:42:35.692Z,44.77
2019-05-01T19:46:42.265Z,45.88
2019-05-01T19:50:50.426Z,45.28
2019-05-01T19:54:56.959Z,44.23
2019-05-01T19:57:02.114Z,41.48
2019-05-01T20:01:08.644Z,45.30
2019-05-01T20:03:12.366Z,42.73
2019-05-01T20:05:16.039Z,45.55
2019-05-01T20:09:24.723Z,41.40
2019-05-01T20:11:28.297Z,46.15
2019-05-01T20:15:35.182Z,44.58
2019-05-01T20:17:38.829Z,43.23
2019-05-01T20:21:45.228Z,40.38
2019-05-01T20:25:55.859Z,41.90
2019-05-01T20:27:57.367Z,45.78
2019-05-01T20:30:01.220Z,46.50
2019-05-01T20:32:04.926Z,45.98
2019-05-01T20:34:11.982Z,47.23
2019-05-01T20:36:13.856Z,46.60
2019-05-01T20:40:20.322Z,44.35
2019-05-01T20:44:26.692Z,48.23
2019-05-01T20:48:33.257Z,47.40
2019-05-01T20:52:39.848Z,48.38
2019-05-01T20:54:43.434Z,50.50
2019-05-01T20:58:57.748Z,50.40
2019-05-01T21:01:01.847Z,53.80
2019-05-01T21:03:05.448Z,56.42
2019-05-01T21:07:30.259Z,47.35
2019-05-01T21:09:46.842Z,48.33
2019-05-01T21:11:47.355Z,49.30
2019-05-01T21:13:50.075Z,50.03
2019-05-01T21:16:01.093Z,51.60
2019-05-01T21:18:01.557Z,54.63
2019-05-01T21:20:06.068Z,51.10
2019-05-01T21:22:09.791Z,53.17
2019-05-01T21:24:13.989Z,53.13
2019-05-01T21:26:17.824Z,52.93
2019-05-01T21:30:24.611Z,51.20
2019-05-01T21:32:28.269Z,54.30
2019-05-01T21:36:36.330Z,54.42
2019-05-01T21:40:43.929Z,53.78
2019-05-01T21:42:54.349Z,53.40
2019-05-01T21:44:53.494Z,54.75
2019-05-01T21:46:57.053Z,57.25
2019-05-01T21:51:07.293Z,57.62
2019-05-01T21:53:08.719Z,54.38
2019-05-01T21:57:17.440Z,56.37
2019-05-01T21:59:20.491Z,53.68
2019-05-01T22:03:26.993Z,59.42
2019-05-01T22:07:33.417Z,58.30
2019-05-01T22:11:40.396Z,56.95
2019-05-01T22:13:44.105Z,53.38
2019-05-01T22:15:49.338Z,54.67
2019-05-01T22:18:06.587Z,55.98
2019-05-01T22:20:12.127Z,56.85
2019-05-01T22:22:17.536Z,52.98
2019-05-01T22:24:25.533Z,51.58
2019-05-01T22:26:33.489Z,59.10
2019-05-01T22:28:44.951Z,51.68
2019-05-01T22:30:50.228Z,53.38
2019-05-01T22:32:55.276Z,51.37
2019-05-01T22:35:06.077Z,58.17
2019-05-01T22:37:09.902Z,52.98
2019-05-01T22:39:13.552Z,51.95
2019-05-01T22:43:19.952Z,53.65
2019-05-01T22:47:27.157Z,58.10
2019-05-01T22:49:30.714Z,48.95
2019-05-01T22:53:37.115Z,56.23
2019-05-01T22:57:43.581Z,52.67
2019-05-01T23:01:52.987Z,51.28
2019-05-01T23:04:01.528Z,52.50
2019-05-01T23:06:06.382Z,51.58
2019-05-01T23:08:10.765Z,48.85
2019-05-01T23:10:14.940Z,53.42
2019-05-01T23:12:18.541Z,49.30
2019-05-01T23:16:28.800Z,51.05
2019-05-01T23:18:32.685Z,50.52
2019-05-01T23:22:40.789Z,46.60
2019-05-01T23:26:47.992Z,46.42
2019-05-01T23:28:52.382Z,51.58
2019-05-01T23:32:58.913Z,48.30
2019-05-01T23:37:05.458Z,44.63
2019-05-01T23:39:09.197Z,44.35
2019-05-01T23:41:12.855Z,41.92
2019-05-01T23:45:19.318Z,40.35
2019-05-01T23:49:25.689Z,40.40
2019-05-01T23:53:33.491Z,40.73
2019-05-01T23:57:39.880Z,39.40
